sensor_id;sensor_type;location;lat;lon;timestamp;pressure;altitude;pressure_sealevel;temperature;humidity
41515;BME280;27247;48.020;16.720;2022-11-20T00:03:54;99593.09;;;1.24;91.85
41515;BME280;27247;48.020;16.720;2022-11-20T00:08:06;99585.69;;;1.29;91.49
41515;BME280;27247;48.020;16.720;2022-11-20T00:12:16;99578.84;;;1.38;91.33
41515;BME280;27247;48.020;16.720;2022-11-20T00:16:29;99565.22;;;1.33;91.28
41515;BME280;27247;48.020;16.720;2022-11-20T00:20:40;99571.09;;;1.25;92.20
41515;BME280;27247;48.020;16.720;2022-11-20T00:24:50;99578.66;;;1.18;93.81
41515;BME280;27247;48.020;16.720;2022-11-20T00:29:01;99578.41;;;1.10;93.08
41515;BME280;27247;48.020;16.720;2022-11-20T00:33:11;99562.38;;;1.02;92.66
41515;BME280;27247;48.020;16.720;2022-11-20T00:37:22;99566.44;;;0.95;93.92
41515;BME280;27247;48.020;16.720;2022-11-20T00:41:32;99568.25;;;0.94;94.10
41515;BME280;27247;48.020;16.720;2022-11-20T00:45:42;99564.31;;;0.89;94.92
41515;BME280;27247;48.020;16.720;2022-11-20T00:49:52;99568.63;;;0.79;95.98
41515;BME280;27247;48.020;16.720;2022-11-20T00:54:03;99564.19;;;0.79;95.60
41515;BME280;27247;48.020;16.720;2022-11-20T00:58:13;99572.69;;;0.83;94.50
41515;BME280;27247;48.020;16.720;2022-11-20T01:02:23;99569.09;;;0.84;94.50
41515;BME280;27247;48.020;16.720;2022-11-20T01:06:36;99587.50;;;0.84;94.24
41515;BME280;27247;48.020;16.720;2022-11-20T01:10:47;99578.16;;;1.02;94.74
41515;BME280;27247;48.020;16.720;2022-11-20T01:14:58;99603.78;;;1.11;92.96
41515;BME280;27247;48.020;16.720;2022-11-20T01:19:13;99610.72;;;1.12;92.20
41515;BME280;27247;48.020;16.720;2022-11-20T01:23:24;99620.28;;;1.13;93.00
41515;BME280;27247;48.020;16.720;2022-11-20T01:27:35;99618.13;;;1.18;93.38
41515;BME280;27247;48.020;16.720;2022-11-20T01:31:45;99621.94;;;1.25;92.94
41515;BME280;27247;48.020;16.720;2022-11-20T01:36:03;99630.06;;;1.34;93.07
41515;BME280;27247;48.020;16.720;2022-11-20T01:40:14;99628.00;;;1.48;92.30
41515;BME280;27247;48.020;16.720;2022-11-20T01:49:04;99637.78;;;1.57;91.64
41515;BME280;27247;48.020;16.720;2022-11-20T01:53:18;99634.81;;;1.51;91.51
41515;BME280;27247;48.020;16.720;2022-11-20T01:57:33;99632.88;;;1.53;92.33
41515;BME280;27247;48.020;16.720;2022-11-20T02:01:44;99621.88;;;1.59;92.72
41515;BME280;27247;48.020;16.720;2022-11-20T02:10:13;99604.31;;;1.37;93.42
41515;BME280;27247;48.020;16.720;2022-11-20T02:14:24;99614.41;;;1.10;95.52
41515;BME280;27247;48.020;16.720;2022-11-20T02:18:35;99603.28;;;0.95;97.84
41515;BME280;27247;48.020;16.720;2022-11-20T02:23:00;99599.34;;;0.78;99.96
41515;BME280;27247;48.020;16.720;2022-11-20T02:27:15;99611.03;;;0.74;100.00
41515;BME280;27247;48.020;16.720;2022-11-20T02:31:26;99621.22;;;0.90;100.00
41515;BME280;27247;48.020;16.720;2022-11-20T02:35:41;99627.53;;;0.87;100.00
41515;BME280;27247;48.020;16.720;2022-11-20T02:39:52;99605.78;;;0.96;100.00
41515;BME280;27247;48.020;16.720;2022-11-20T02:44:03;99601.59;;;0.94;100.00
41515;BME280;27247;48.020;16.720;2022-11-20T02:48:14;99599.81;;;0.94;100.00
41515;BME280;27247;48.020;16.720;2022-11-20T02:52:25;99590.72;;;0.99;100.00
41515;BME280;27247;48.020;16.720;2022-11-20T02:56:38;99576.13;;;0.94;100.00
41515;BME280;27247;48.020;16.720;2022-11-20T03:00:48;99570.50;;;1.21;100.00
41515;BME280;27247;48.020;16.720;2022-11-20T03:04:58;99567.50;;;1.26;100.00
41515;BME280;27247;48.020;16.720;2022-11-20T03:09:09;99571.72;;;1.17;100.00
41515;BME280;27247;48.020;16.720;2022-11-20T03:17:39;99574.81;;;1.22;100.00
41515;BME280;27247;48.020;16.720;2022-11-20T03:21:50;99571.06;;;1.36;100.00
41515;BME280;27247;48.020;16.720;2022-11-20T09:31:22;99618.41;;;2.43;97.54
41515;BME280;27247;48.020;16.720;2022-11-20T09:35:33;99614.50;;;2.68;96.04
41515;BME280;27247;48.020;16.720;2022-11-20T09:39:44;99599.53;;;2.69;96.11
41515;BME280;27247;48.020;16.720;2022-11-20T09:44:03;99607.88;;;2.74;96.63
41515;BME280;27247;48.020;16.720;2022-11-20T09:48:39;99598.78;;;2.87;96.67
41515;BME280;27247;48.020;16.720;2022-11-20T09:53:13;99604.63;;;2.91;96.73
41515;BME280;27247;48.020;16.720;2022-11-20T09:57:31;99605.50;;;3.01;95.99
41515;BME280;27247;48.020;16.720;2022-11-20T10:01:44;99603.50;;;3.14;94.80
41515;BME280;27247;48.020;16.720;2022-11-20T10:05:55;99595.72;;;3.13;94.89
41515;BME280;27247;48.020;16.720;2022-11-20T10:10:40;99585.16;;;3.23;92.07
41515;BME280;27247;48.020;16.720;2022-11-20T10:28:24;99592.81;;;3.26;93.09
41515;BME280;27247;48.020;16.720;2022-11-20T10:32:43;99586.69;;;3.15;93.05
41515;BME280;27247;48.020;16.720;2022-11-20T10:37:06;99583.78;;;3.18;94.38
41515;BME280;27247;48.020;16.720;2022-11-20T10:41:28;99572.00;;;3.32;95.67
41515;BME280;27247;48.020;16.720;2022-11-20T10:50:05;99560.34;;;3.44;93.67
41515;BME280;27247;48.020;16.720;2022-11-20T10:59:03;99562.56;;;3.59;93.78
41515;BME280;27247;48.020;16.720;2022-11-20T11:07:37;99557.44;;;3.67;93.76
41515;BME280;27247;48.020;16.720;2022-11-20T11:11:48;99556.47;;;3.77;93.28
41515;BME280;27247;48.020;16.720;2022-11-20T11:15:59;99546.88;;;3.76;91.21
41515;BME280;27247;48.020;16.720;2022-11-20T11:20:21;99544.78;;;3.80;92.54
41515;BME280;27247;48.020;16.720;2022-11-20T11:24:31;99539.63;;;3.78;91.35
41515;BME280;27247;48.020;16.720;2022-11-20T11:28:58;99537.13;;;3.77;92.77
41515;BME280;27247;48.020;16.720;2022-11-20T11:33:11;99528.78;;;3.91;93.47
41515;BME280;27247;48.020;16.720;2022-11-20T11:37:22;99532.94;;;4.03;92.62
41515;BME280;27247;48.020;16.720;2022-11-20T11:41:33;99526.94;;;4.21;92.07
41515;BME280;27247;48.020;16.720;2022-11-20T11:45:56;99527.09;;;4.19;92.33
41515;BME280;27247;48.020;16.720;2022-11-20T11:54:26;99523.41;;;4.39;89.05
41515;BME280;27247;48.020;16.720;2022-11-20T11:58:45;99514.88;;;4.55;87.12
41515;BME280;27247;48.020;16.720;2022-11-20T12:03:13;99519.25;;;4.74;87.68
41515;BME280;27247;48.020;16.720;2022-11-20T12:07:41;99521.78;;;4.66;87.26
41515;BME280;27247;48.020;16.720;2022-11-20T12:11:58;99513.94;;;4.74;87.32
41515;BME280;27247;48.020;16.720;2022-11-20T12:16:12;99511.19;;;4.93;87.28
41515;BME280;27247;48.020;16.720;2022-11-20T12:20:33;99506.53;;;5.05;87.23
41515;BME280;27247;48.020;16.720;2022-11-20T12:34:13;99502.81;;;5.61;84.46
41515;BME280;27247;48.020;16.720;2022-11-20T12:52:10;99490.50;;;6.13;84.58
41515;BME280;27247;48.020;16.720;2022-11-20T12:56:51;99479.13;;;6.47;81.95
41515;BME280;27247;48.020;16.720;2022-11-20T13:01:27;99477.84;;;6.25;83.07
41515;BME280;27247;48.020;16.720;2022-11-20T13:10:05;99477.84;;;7.09;80.73
41515;BME280;27247;48.020;16.720;2022-11-20T13:14:35;99478.94;;;7.32;80.37
41515;BME280;27247;48.020;16.720;2022-11-20T13:18:49;99480.63;;;7.66;79.30
41515;BME280;27247;48.020;16.720;2022-11-20T13:22:59;99479.13;;;7.63;78.07
41515;BME280;27247;48.020;16.720;2022-11-20T13:31:29;99460.34;;;7.97;75.78
41515;BME280;27247;48.020;16.720;2022-11-20T13:35:42;99465.00;;;7.95;78.30
41515;BME280;27247;48.020;16.720;2022-11-20T13:40:19;99459.78;;;8.51;76.67
41515;BME280;27247;48.020;16.720;2022-11-20T13:48:47;99440.38;;;8.73;75.46
41515;BME280;27247;48.020;16.720;2022-11-20T13:53:07;99429.25;;;8.70;74.62
41515;BME280;27247;48.020;16.720;2022-11-20T14:01:45;99426.44;;;8.94;74.33
41515;BME280;27247;48.020;16.720;2022-11-20T14:06:01;99424.88;;;8.77;74.68
41515;BME280;27247;48.020;16.720;2022-11-20T14:10:25;99425.06;;;8.75;76.18
41515;BME280;27247;48.020;16.720;2022-11-20T14:14:36;99430.63;;;8.57;74.75
41515;BME280;27247;48.020;16.720;2022-11-20T14:19:08;99425.22;;;8.10;77.02
41515;BME280;27247;48.020;16.720;2022-11-20T14:23:28;99426.75;;;7.88;77.61
41515;BME280;27247;48.020;16.720;2022-11-20T14:27:55;99424.63;;;7.51;79.34
41515;BME280;27247;48.020;16.720;2022-11-20T14:32:08;99432.22;;;7.22;81.59
41515;BME280;27247;48.020;16.720;2022-11-20T14:36:21;99428.06;;;7.19;81.24
41515;BME280;27247;48.020;16.720;2022-11-20T14:40:36;99422.53;;;6.96;81.09
41515;BME280;27247;48.020;16.720;2022-11-20T14:44:48;99413.88;;;6.78;82.05
41515;BME280;27247;48.020;16.720;2022-11-20T14:49:01;99413.88;;;6.78;81.28
41515;BME280;27247;48.020;16.720;2022-11-20T14:53:22;99411.22;;;6.78;81.84
41515;BME280;27247;48.020;16.720;2022-11-20T14:57:35;99415.88;;;6.34;82.66
41515;BME280;27247;48.020;16.720;2022-11-20T15:01:56;99404.81;;;6.21;82.28
41515;BME280;27247;48.020;16.720;2022-11-20T15:06:11;99403.97;;;5.68;83.69
41515;BME280;27247;48.020;16.720;2022-11-20T15:10:24;99399.09;;;5.56;84.75
41515;BME280;27247;48.020;16.720;2022-11-20T15:14:35;99398.72;;;5.51;83.95
41515;BME280;27247;48.020;16.720;2022-11-20T15:18:46;99397.31;;;5.38;84.04
41515;BME280;27247;48.020;16.720;2022-11-20T15:22:58;99398.97;;;5.22;84.93
41515;BME280;27247;48.020;16.720;2022-11-20T15:27:09;99398.66;;;5.07;85.38
41515;BME280;27247;48.020;16.720;2022-11-20T15:31:22;99393.13;;;4.82;86.12
41515;BME280;27247;48.020;16.720;2022-11-20T15:35:33;99384.44;;;4.45;87.92
41515;BME280;27247;48.020;16.720;2022-11-20T15:39:44;99400.31;;;4.18;89.85
41515;BME280;27247;48.020;16.720;2022-11-20T15:43:55;99392.59;;;3.87;89.96
41515;BME280;27247;48.020;16.720;2022-11-20T15:48:14;99397.94;;;3.58;91.23
41515;BME280;27247;48.020;16.720;2022-11-20T15:52:25;99404.09;;;3.39;92.67
41515;BME280;27247;48.020;16.720;2022-11-20T15:56:36;99407.16;;;3.25;93.42
41515;BME280;27247;48.020;16.720;2022-11-20T16:00:47;99415.78;;;3.17;94.48
41515;BME280;27247;48.020;16.720;2022-11-20T16:04:58;99403.69;;;3.15;94.68
41515;BME280;27247;48.020;16.720;2022-11-20T16:09:09;99407.16;;;3.15;94.57
41515;BME280;27247;48.020;16.720;2022-11-20T16:13:20;99406.88;;;3.28;94.21
41515;BME280;27247;48.020;16.720;2022-11-20T16:17:49;99406.47;;;3.13;94.61
41515;BME280;27247;48.020;16.720;2022-11-20T16:22:00;99408.94;;;3.05;95.14
41515;BME280;27247;48.020;16.720;2022-11-20T16:26:17;99414.41;;;3.13;95.07
41515;BME280;27247;48.020;16.720;2022-11-20T16:30:36;99413.53;;;3.03;95.69
41515;BME280;27247;48.020;16.720;2022-11-20T16:34:47;99421.31;;;3.05;96.18
41515;BME280;27247;48.020;16.720;2022-11-20T16:38:59;99419.50;;;3.05;96.79
41515;BME280;27247;48.020;16.720;2022-11-20T16:43:13;99421.44;;;3.03;98.14
41515;BME280;27247;48.020;16.720;2022-11-20T16:47:24;99422.56;;;3.10;98.23
41515;BME280;27247;48.020;16.720;2022-11-20T16:51:36;99424.09;;;3.03;99.47
41515;BME280;27247;48.020;16.720;2022-11-20T16:55:48;99427.16;;;3.08;99.60
41515;BME280;27247;48.020;16.720;2022-11-20T16:59:59;99429.13;;;3.16;99.84
41515;BME280;27247;48.020;16.720;2022-11-20T17:04:10;99415.66;;;3.29;98.67
41515;BME280;27247;48.020;16.720;2022-11-20T17:08:20;99415.22;;;3.24;98.66
41515;BME280;27247;48.020;16.720;2022-11-20T17:12:31;99415.78;;;3.37;97.53
41515;BME280;27247;48.020;16.720;2022-11-20T17:16:42;99416.34;;;3.31;98.55
41515;BME280;27247;48.020;16.720;2022-11-20T17:20:53;99408.28;;;3.23;99.19
41515;BME280;27247;48.020;16.720;2022-11-20T17:25:04;99393.13;;;3.25;98.80
41515;BME280;27247;48.020;16.720;2022-11-20T17:29:16;99393.28;;;3.23;99.13
41515;BME280;27247;48.020;16.720;2022-11-20T17:33:28;99384.09;;;3.17;100.00
41515;BME280;27247;48.020;16.720;2022-11-20T17:37:39;99389.66;;;3.14;99.75
41515;BME280;27247;48.020;16.720;2022-11-20T17:41:50;99386.72;;;3.08;98.83
41515;BME280;27247;48.020;16.720;2022-11-20T17:46:22;99383.53;;;3.04;100.00
41515;BME280;27247;48.020;16.720;2022-11-20T17:50:33;99382.72;;;3.13;99.24
41515;BME280;27247;48.020;16.720;2022-11-20T17:54:43;99381.16;;;2.92;99.57
41515;BME280;27247;48.020;16.720;2022-11-20T17:58:54;99382.53;;;2.86;99.71
41515;BME280;27247;48.020;16.720;2022-11-20T18:03:05;99380.59;;;2.69;100.00
41515;BME280;27247;48.020;16.720;2022-11-20T18:07:16;99377.75;;;2.41;100.00
41515;BME280;27247;48.020;16.720;2022-11-20T18:11:29;99377.59;;;2.33;100.00
41515;BME280;27247;48.020;16.720;2022-11-20T18:15:40;99372.06;;;2.36;100.00
41515;BME280;27247;48.020;16.720;2022-11-20T18:19:52;99362.88;;;2.31;100.00
41515;BME280;27247;48.020;16.720;2022-11-20T18:24:03;99363.94;;;2.09;100.00
41515;BME280;27247;48.020;16.720;2022-11-20T18:28:14;99347.19;;;1.89;100.00
41515;BME280;27247;48.020;16.720;2022-11-20T18:32:24;99337.91;;;1.95;100.00
41515;BME280;27247;48.020;16.720;2022-11-20T18:36:36;99343.44;;;1.91;100.00
41515;BME280;27247;48.020;16.720;2022-11-20T18:40:47;99335.00;;;1.98;100.00
41515;BME280;27247;48.020;16.720;2022-11-20T18:44:58;99324.44;;;1.88;100.00
41515;BME280;27247;48.020;16.720;2022-11-20T18:49:10;99333.06;;;2.00;100.00
41515;BME280;27247;48.020;16.720;2022-11-20T18:53:21;99331.41;;;1.99;100.00
41515;BME280;27247;48.020;16.720;2022-11-20T18:57:34;99334.75;;;2.01;100.00
41515;BME280;27247;48.020;16.720;2022-11-20T19:01:47;99337.75;;;1.86;100.00
41515;BME280;27247;48.020;16.720;2022-11-20T19:05:58;99337.44;;;1.80;100.00
41515;BME280;27247;48.020;16.720;2022-11-20T19:10:10;99348.50;;;1.74;100.00
41515;BME280;27247;48.020;16.720;2022-11-20T19:14:21;99353.38;;;1.78;100.00
41515;BME280;27247;48.020;16.720;2022-11-20T19:18:37;99370.84;;;1.79;100.00
41515;BME280;27247;48.020;16.720;2022-11-20T19:22:50;99369.03;;;1.49;100.00
41515;BME280;27247;48.020;16.720;2022-11-20T19:27:03;99383.28;;;1.47;100.00
41515;BME280;27247;48.020;16.720;2022-11-20T19:31:19;99374.56;;;1.46;100.00
41515;BME280;27247;48.020;16.720;2022-11-20T19:35:30;99367.16;;;1.40;100.00
41515;BME280;27247;48.020;16.720;2022-11-20T19:39:41;99384.56;;;1.52;100.00
41515;BME280;27247;48.020;16.720;2022-11-20T19:43:52;99371.97;;;1.56;100.00
41515;BME280;27247;48.020;16.720;2022-11-20T19:48:02;99379.09;;;1.44;100.00
41515;BME280;27247;48.020;16.720;2022-11-20T19:52:13;99380.66;;;1.47;100.00
41515;BME280;27247;48.020;16.720;2022-11-20T19:56:25;99391.25;;;1.36;100.00
41515;BME280;27247;48.020;16.720;2022-11-20T20:00:36;99392.16;;;1.46;100.00
41515;BME280;27247;48.020;16.720;2022-11-20T20:04:46;99392.53;;;1.20;99.25
41515;BME280;27247;48.020;16.720;2022-11-20T20:09:00;99390.41;;;1.14;100.00
41515;BME280;27247;48.020;16.720;2022-11-20T20:13:11;99385.00;;;1.16;100.00
41515;BME280;27247;48.020;16.720;2022-11-20T20:17:22;99380.25;;;1.10;100.00
41515;BME280;27247;48.020;16.720;2022-11-20T20:21:34;99384.09;;;1.06;100.00
41515;BME280;27247;48.020;16.720;2022-11-20T20:25:46;99387.09;;;1.01;100.00
41515;BME280;27247;48.020;16.720;2022-11-20T20:29:57;99377.91;;;0.95;100.00
41515;BME280;27247;48.020;16.720;2022-11-20T20:34:09;99383.66;;;0.89;100.00
41515;BME280;27247;48.020;16.720;2022-11-20T20:38:21;99399.91;;;0.94;100.00
41515;BME280;27247;48.020;16.720;2022-11-20T20:42:33;99374.16;;;1.09;100.00
41515;BME280;27247;48.020;16.720;2022-11-20T20:46:43;99365.06;;;1.02;100.00
41515;BME280;27247;48.020;16.720;2022-11-20T20:51:00;99366.41;;;0.96;100.00
41515;BME280;27247;48.020;16.720;2022-11-20T20:55:12;99367.75;;;0.91;100.00
41515;BME280;27247;48.020;16.720;2022-11-20T20:59:23;99357.91;;;1.04;100.00
41515;BME280;27247;48.020;16.720;2022-11-20T21:03:35;99361.72;;;1.11;100.00
41515;BME280;27247;48.020;16.720;2022-11-20T21:07:46;99356.13;;;1.25;100.00
41515;BME280;27247;48.020;16.720;2022-11-20T21:12:15;99353.44;;;1.37;100.00
41515;BME280;27247;48.020;16.720;2022-11-20T21:16:25;99350.94;;;1.35;100.00
41515;BME280;27247;48.020;16.720;2022-11-20T21:20:38;99352.72;;;1.35;100.00
41515;BME280;27247;48.020;16.720;2022-11-20T21:25:07;99355.09;;;1.38;100.00
41515;BME280;27247;48.020;16.720;2022-11-20T21:29:19;99350.09;;;1.35;100.00
41515;BME280;27247;48.020;16.720;2022-11-20T21:37:50;99351.13;;;1.22;100.00
41515;BME280;27247;48.020;16.720;2022-11-20T21:42:00;99354.47;;;1.24;100.00
41515;BME280;27247;48.020;16.720;2022-11-20T21:46:15;99354.97;;;1.18;100.00
41515;BME280;27247;48.020;16.720;2022-11-20T21:50:25;99351.25;;;1.21;100.00
41515;BME280;27247;48.020;16.720;2022-11-20T21:54:36;99356.13;;;1.25;100.00
41515;BME280;27247;48.020;16.720;2022-11-20T21:58:46;99360.09;;;1.20;100.00
41515;BME280;27247;48.020;16.720;2022-11-20T22:02:57;99367.03;;;1.21;100.00
41515;BME280;27247;48.020;16.720;2022-11-20T22:07:07;99368.91;;;1.30;100.00
41515;BME280;27247;48.020;16.720;2022-11-20T22:11:20;99370.94;;;1.47;100.00
41515;BME280;27247;48.020;16.720;2022-11-20T22:15:30;99365.63;;;1.58;100.00
41515;BME280;27247;48.020;16.720;2022-11-20T22:19:40;99360.88;;;1.83;100.00
41515;BME280;27247;48.020;16.720;2022-11-20T22:23:51;99362.28;;;1.87;100.00
41515;BME280;27247;48.020;16.720;2022-11-20T22:28:02;99363.03;;;1.99;100.00
41515;BME280;27247;48.020;16.720;2022-11-20T22:32:12;99352.19;;;1.92;100.00
41515;BME280;27247;48.020;16.720;2022-11-20T22:36:24;99353.31;;;1.99;100.00
41515;BME280;27247;48.020;16.720;2022-11-20T22:40:35;99358.38;;;2.12;100.00
41515;BME280;27247;48.020;16.720;2022-11-20T22:44:45;99351.88;;;2.16;100.00
41515;BME280;27247;48.020;16.720;2022-11-20T22:48:57;99348.53;;;2.14;100.00
41515;BME280;27247;48.020;16.720;2022-11-20T22:53:08;99346.03;;;2.12;100.00
41515;BME280;27247;48.020;16.720;2022-11-20T22:57:19;99336.09;;;2.26;100.00
41515;BME280;27247;48.020;16.720;2022-11-20T23:01:31;99338.47;;;2.29;100.00
41515;BME280;27247;48.020;16.720;2022-11-20T23:05:42;99339.13;;;2.21;100.00
41515;BME280;27247;48.020;16.720;2022-11-20T23:09:52;99341.91;;;2.19;100.00
41515;BME280;27247;48.020;16.720;2022-11-20T23:14:11;99336.63;;;2.19;100.00
41515;BME280;27247;48.020;16.720;2022-11-20T23:18:22;99323.88;;;2.15;100.00
41515;BME280;27247;48.020;16.720;2022-11-20T23:22:32;99320.06;;;2.08;100.00
41515;BME280;27247;48.020;16.720;2022-11-20T23:26:43;99314.94;;;2.06;100.00
41515;BME280;27247;48.020;16.720;2022-11-20T23:30:56;99314.69;;;2.09;100.00
41515;BME280;27247;48.020;16.720;2022-11-20T23:35:07;99305.16;;;2.18;100.00
41515;BME280;27247;48.020;16.720;2022-11-20T23:39:17;99307.84;;;2.07;100.00
41515;BME280;27247;48.020;16.720;2022-11-20T23:43:28;99295.50;;;2.07;100.00
41515;BME280;27247;48.020;16.720;2022-11-20T23:47:38;99275.28;;;2.08;100.00
41515;BME280;27247;48.020;16.720;2022-11-20T23:51:49;99275.03;;;2.11;100.00
41515;BME280;27247;48.020;16.720;2022-11-20T23:56:01;99276.75;;;1.91;100.00
